sensor_id;sensor_type;location;lat;lon;timestamp;pressure;altitude;pressure_sealevel;temperature;humidity
12763;BME280;6445;52.490;13.378;2023-08-24T00:01:14;89622.38;;;-146.10;100.00
12763;BME280;6445;52.490;13.378;2023-08-24T00:03:41;91432.19;;;-146.10;100.00
12763;BME280;6445;52.490;13.378;2023-08-24T00:06:06;91432.19;;;-146.10;100.00
12763;BME280;6445;52.490;13.378;2023-08-24T00:08:31;92725.41;;;-146.10;100.00
12763;BME280;6445;52.490;13.378;2023-08-24T00:10:57;92984.13;;;-146.10;100.00
12763;BME280;6445;52.490;13.378;2023-08-24T00:13:23;92984.13;;;-146.10;100.00
12763;BME280;6445;52.490;13.378;2023-08-24T00:15:48;92208.09;;;-146.10;100.00
12763;BME280;6445;52.490;13.378;2023-08-24T00:18:13;93242.81;;;-146.10;100.00
12763;BME280;6445;52.490;13.378;2023-08-24T00:20:38;92466.75;;;-146.10;100.00
12763;BME280;6445;52.490;13.378;2023-08-24T00:23:04;94277.81;;;-146.10;100.00
12763;BME280;6445;52.490;13.378;2023-08-24T00:25:30;96348.63;;;-146.10;100.00
12763;BME280;6445;52.490;13.378;2023-08-24T00:27:56;97125.47;;;-146.10;100.00
12763;BME280;6445;52.490;13.378;2023-08-24T00:30:21;98161.47;;;-146.10;100.00
12763;BME280;6445;52.490;13.378;2023-08-24T00:32:47;97902.44;;;-146.10;100.00
12763;BME280;6445;52.490;13.378;2023-08-24T00:35:12;98420.50;;;-146.10;100.00
12763;BME280;6445;52.490;13.378;2023-08-24T00:37:38;98420.50;;;-146.10;100.00
12763;BME280;6445;52.490;13.378;2023-08-24T00:40:04;98161.47;;;-146.10;100.00
12763;BME280;6445;52.490;13.378;2023-08-24T00:42:37;98679.56;;;-146.10;100.00
12763;BME280;6445;52.490;13.378;2023-08-24T00:45:02;98938.63;;;-146.10;100.00
12763;BME280;6445;52.490;13.378;2023-08-24T00:47:28;97902.44;;;-146.10;100.00
12763;BME280;6445;52.490;13.378;2023-08-24T00:49:54;98679.56;;;-146.10;100.00
12763;BME280;6445;52.490;13.378;2023-08-24T00:52:19;98938.63;;;-146.10;100.00
12763;BME280;6445;52.490;13.378;2023-08-24T00:54:45;98679.56;;;-146.10;100.00
12763;BME280;6445;52.490;13.378;2023-08-24T00:57:10;99975.09;;;-146.10;100.00
12763;BME280;6445;52.490;13.378;2023-08-24T00:59:36;99975.09;;;-146.10;100.00
12763;BME280;6445;52.490;13.378;2023-08-24T01:02:01;99975.09;;;-146.10;100.00
12763;BME280;6445;52.490;13.378;2023-08-24T01:04:27;99715.97;;;-146.10;100.00
12763;BME280;6445;52.490;13.378;2023-08-24T01:06:52;101530.28;;;-146.10;100.00
12763;BME280;6445;52.490;13.378;2023-08-24T01:09:18;101530.28;;;-146.10;100.00
12763;BME280;6445;52.490;13.378;2023-08-24T01:12:00;101789.53;;;-146.10;100.00
12763;BME280;6445;52.490;13.378;2023-08-24T01:14:41;102567.41;;;-146.10;100.00
12763;BME280;6445;52.490;13.378;2023-08-24T01:17:09;102048.81;;;-146.10;100.00
12763;BME280;6445;52.490;13.378;2023-08-24T01:19:40;101011.81;;;-146.10;100.00
12763;BME280;6445;52.490;13.378;2023-08-24T01:22:22;101011.81;;;-146.10;100.00
12763;BME280;6445;52.490;13.378;2023-08-24T01:24:55;101011.81;;;-146.10;100.00
12763;BME280;6445;52.490;13.378;2023-08-24T01:27:26;100493.44;;;-146.10;100.00
12763;BME280;6445;52.490;13.378;2023-08-24T01:29:53;100493.44;;;-146.10;100.00
12763;BME280;6445;52.490;13.378;2023-08-24T01:32:22;101011.81;;;-146.10;100.00
12763;BME280;6445;52.490;13.378;2023-08-24T01:34:47;101011.81;;;-146.10;100.00
12763;BME280;6445;52.490;13.378;2023-08-24T01:37:12;99715.97;;;-146.10;100.00
12763;BME280;6445;52.490;13.378;2023-08-24T01:39:44;98679.56;;;-146.10;100.00
12763;BME280;6445;52.490;13.378;2023-08-24T01:42:19;98161.47;;;-146.10;100.00
12763;BME280;6445;52.490;13.378;2023-08-24T01:44:49;97902.44;;;-146.10;100.00
12763;BME280;6445;52.490;13.378;2023-08-24T01:47:15;95313.09;;;-146.10;100.00
12763;BME280;6445;52.490;13.378;2023-08-24T01:49:41;94536.63;;;-146.10;100.00
12763;BME280;6445;52.490;13.378;2023-08-24T01:52:08;95313.09;;;-146.10;100.00
12763;BME280;6445;52.490;13.378;2023-08-24T01:54:34;95313.09;;;-146.10;100.00
12763;BME280;6445;52.490;13.378;2023-08-24T01:57:00;94795.44;;;-146.10;100.00
12763;BME280;6445;52.490;13.378;2023-08-24T01:59:25;96866.50;;;-146.10;100.00
12763;BME280;6445;52.490;13.378;2023-08-24T02:01:50;97643.44;;;-146.10;100.00
12763;BME280;6445;52.490;13.378;2023-08-24T02:04:15;98161.47;;;-146.10;100.00
12763;BME280;6445;52.490;13.378;2023-08-24T02:06:41;101011.81;;;-146.10;100.00
12763;BME280;6445;52.490;13.378;2023-08-24T02:09:06;100493.44;;;-146.10;100.00
12763;BME280;6445;52.490;13.378;2023-08-24T02:11:31;102048.81;;;-146.10;100.00
12763;BME280;6445;52.490;13.378;2023-08-24T02:13:56;101530.28;;;-146.10;100.00
12763;BME280;6445;52.490;13.378;2023-08-24T02:16:22;102308.09;;;-146.10;100.00
12763;BME280;6445;52.490;13.378;2023-08-24T02:18:47;102308.09;;;-146.10;100.00
12763;BME280;6445;52.490;13.378;2023-08-24T02:21:12;102308.09;;;-146.10;100.00
12763;BME280;6445;52.490;13.378;2023-08-24T02:23:40;102048.81;;;-146.10;100.00
12763;BME280;6445;52.490;13.378;2023-08-24T02:26:05;101011.81;;;-146.10;100.00
12763;BME280;6445;52.490;13.378;2023-08-24T02:28:30;98679.56;;;-146.10;100.00
12763;BME280;6445;52.490;13.378;2023-08-24T02:31:00;97384.44;;;-146.10;100.00
12763;BME280;6445;52.490;13.378;2023-08-24T02:33:26;97384.44;;;-146.10;100.00
12763;BME280;6445;52.490;13.378;2023-08-24T02:35:51;97643.44;;;-146.10;100.00
12763;BME280;6445;52.490;13.378;2023-08-24T02:38:17;96866.50;;;-146.10;100.00
12763;BME280;6445;52.490;13.378;2023-08-24T02:40:42;96348.63;;;-146.10;100.00
12763;BME280;6445;52.490;13.378;2023-08-24T02:43:07;95054.25;;;-146.10;100.00
12763;BME280;6445;52.490;13.378;2023-08-24T02:45:32;92725.41;;;-146.10;100.00
12763;BME280;6445;52.490;13.378;2023-08-24T02:47:58;91173.59;;;-146.10;100.00
12763;BME280;6445;52.490;13.378;2023-08-24T02:50:23;90915.03;;;-146.10;100.00
12763;BME280;6445;52.490;13.378;2023-08-24T02:52:48;92984.13;;;-146.10;100.00
12763;BME280;6445;52.490;13.378;2023-08-24T02:55:13;90139.41;;;-146.10;100.00
12763;BME280;6445;52.490;13.378;2023-08-24T02:57:39;92725.41;;;-146.10;100.00
12763;BME280;6445;52.490;13.378;2023-08-24T03:00:04;92208.09;;;-146.10;100.00
12763;BME280;6445;52.490;13.378;2023-08-24T03:02:32;93760.28;;;-146.10;100.00
12763;BME280;6445;52.490;13.378;2023-08-24T03:04:57;92984.13;;;-146.10;100.00
12763;BME280;6445;52.490;13.378;2023-08-24T03:07:22;91432.19;;;-146.10;100.00
12763;BME280;6445;52.490;13.378;2023-08-24T03:09:47;91690.81;;;-146.10;100.00
12763;BME280;6445;52.490;13.378;2023-08-24T03:12:13;86005.19;;;-146.10;100.00
12763;BME280;6445;52.490;13.378;2023-08-24T03:14:38;85230.50;;;-146.10;100.00
12763;BME280;6445;52.490;13.378;2023-08-24T03:17:03;83165.41;;;-146.10;100.00
12763;BME280;6445;52.490;13.378;2023-08-24T03:19:29;80617.75;;;-146.10;100.00
12763;BME280;6445;52.490;13.378;2023-08-24T03:21:55;79995.19;;;-146.10;100.00
12763;BME280;6445;52.490;13.378;2023-08-24T03:24:20;77518.00;;;-146.10;100.00
12763;BME280;6445;52.490;13.378;2023-08-24T03:26:45;75837.22;;;-146.10;100.00
12763;BME280;6445;52.490;13.378;2023-08-24T03:29:10;74499.13;;;-146.10;100.00
12763;BME280;6445;52.490;13.378;2023-08-24T03:31:35;72590.34;;;-146.10;100.00
12763;BME280;6445;52.490;13.378;2023-08-24T03:34:01;71331.72;;;-146.10;100.00
12763;BME280;6445;52.490;13.378;2023-08-24T03:36:26;70258.41;;;-146.10;100.00
12763;BME280;6445;52.490;13.378;2023-08-24T03:38:52;68755.44;;;-146.10;100.00
12763;BME280;6445;52.490;13.378;2023-08-24T03:41:17;68188.94;;;-146.10;100.00
12763;BME280;6445;52.490;13.378;2023-08-24T03:43:42;69446.56;;;-146.10;100.00
12763;BME280;6445;52.490;13.378;2023-08-24T03:46:08;68954.31;;;-146.10;100.00
12763;BME280;6445;52.490;13.378;2023-08-24T03:48:33;68825.75;;;-146.10;100.00
12763;BME280;6445;52.490;13.378;2023-08-24T03:50:58;68411.91;;;-146.10;100.00
12763;BME280;6445;52.490;13.378;2023-08-24T03:53:24;67036.13;;;-146.10;100.00
12763;BME280;6445;52.490;13.378;2023-08-24T03:55:50;66510.06;;;-146.10;100.00
12763;BME280;6445;52.490;13.378;2023-08-24T03:58:16;65861.56;;;-146.10;100.00
12763;BME280;6445;52.490;13.378;2023-08-24T04:00:42;66204.88;;;-146.10;100.00
12763;BME280;6445;52.490;13.378;2023-08-24T04:03:08;65106.84;;;-146.10;100.00
12763;BME280;6445;52.490;13.378;2023-08-24T04:05:33;66293.22;;;-146.10;100.00
12763;BME280;6445;52.490;13.378;2023-08-24T04:07:58;65608.66;;;-146.10;100.00
12763;BME280;6445;52.490;13.378;2023-08-24T04:10:26;63782.38;;;-146.10;100.00
12763;BME280;6445;52.490;13.378;2023-08-24T04:12:51;64037.19;;;-146.10;100.00
12763;BME280;6445;52.490;13.378;2023-08-24T04:15:16;63206.56;;;-146.10;100.00
12763;BME280;6445;52.490;13.378;2023-08-24T04:17:41;63264.72;;;-146.10;100.00
12763;BME280;6445;52.490;13.378;2023-08-24T04:20:07;62825.41;;;-146.10;100.00
12763;BME280;6445;52.490;13.378;2023-08-24T04:22:33;62466.34;;;-146.10;100.00
12763;BME280;6445;52.490;13.378;2023-08-24T04:24:58;63090.19;;;-146.10;100.00
12763;BME280;6445;52.490;13.378;2023-08-24T04:27:23;63132.31;;;-146.10;100.00
12763;BME280;6445;52.490;13.378;2023-08-24T04:29:48;63674.03;;;-146.10;100.00
12763;BME280;6445;52.490;13.378;2023-08-24T04:32:14;63882.69;;;-146.10;100.00
12763;BME280;6445;52.490;13.378;2023-08-24T04:34:39;64516.78;;;-146.10;100.00
12763;BME280;6445;52.490;13.378;2023-08-24T04:37:05;64161.59;;;-146.10;100.00
12763;BME280;6445;52.490;13.378;2023-08-24T04:39:31;63736.22;;;-146.10;100.00
12763;BME280;6445;52.490;13.378;2023-08-24T04:41:57;63196.53;;;-146.10;100.00
12763;BME280;6445;52.490;13.378;2023-08-24T04:44:22;62705.06;;;-146.10;100.00
12763;BME280;6445;52.490;13.378;2023-08-24T04:46:48;61624.03;;;-146.10;100.00
12763;BME280;6445;52.490;13.378;2023-08-24T04:49:14;61012.44;;;-146.10;100.00
12763;BME280;6445;52.490;13.378;2023-08-24T04:51:39;60679.59;;;-146.10;100.00
12763;BME280;6445;52.490;13.378;2023-08-24T04:54:04;60497.16;;;-146.10;100.00
12763;BME280;6445;52.490;13.378;2023-08-24T04:56:30;60412.97;;;-146.10;100.00
12763;BME280;6445;52.490;13.378;2023-08-24T04:58:56;60479.13;;;-146.10;100.00
12763;BME280;6445;52.490;13.378;2023-08-24T05:01:25;60232.53;;;-146.10;100.00
12763;BME280;6445;52.490;13.378;2023-08-24T05:03:51;60725.72;;;-146.10;100.00
12763;BME280;6445;52.490;13.378;2023-08-24T05:06:17;59981.97;;;-146.10;100.00
12763;BME280;6445;52.490;13.378;2023-08-24T05:08:42;60429.00;;;-146.10;100.00
12763;BME280;6445;52.490;13.378;2023-08-24T05:11:18;59051.97;;;-146.10;100.00
12763;BME280;6445;52.490;13.378;2023-08-24T05:13:44;58178.31;;;-146.10;100.00
12763;BME280;6445;52.490;13.378;2023-08-24T05:16:12;58172.28;;;-146.10;100.00
12763;BME280;6445;52.490;13.378;2023-08-24T05:18:37;57228.72;;;-146.10;100.00
12763;BME280;6445;52.490;13.378;2023-08-24T05:21:03;56000.97;;;-146.10;100.00
12763;BME280;6445;52.490;13.378;2023-08-24T05:23:32;55428.31;;;-146.10;100.00
12763;BME280;6445;52.490;13.378;2023-08-24T05:25:59;55832.78;;;-146.10;100.00
12763;BME280;6445;52.490;13.378;2023-08-24T05:28:28;55184.03;;;-146.10;99.88
12763;BME280;6445;52.490;13.378;2023-08-24T05:30:54;53916.91;;;-146.10;87.92
12763;BME280;6445;52.490;13.378;2023-08-24T05:33:21;53076.38;;;-146.10;74.78
12763;BME280;6445;52.490;13.378;2023-08-24T05:35:47;53082.38;;;-146.10;73.66
12763;BME280;6445;52.490;13.378;2023-08-24T05:38:13;52946.31;;;-146.10;70.80
12763;BME280;6445;52.490;13.378;2023-08-24T05:40:38;52884.28;;;-146.10;67.52
12763;BME280;6445;52.490;13.378;2023-08-24T05:43:05;52890.28;;;-146.10;72.02
12763;BME280;6445;52.490;13.378;2023-08-24T05:45:30;53022.34;;;-146.10;75.07
12763;BME280;6445;52.490;13.378;2023-08-24T05:47:55;52992.34;;;-146.10;74.27
12763;BME280;6445;52.490;13.378;2023-08-24T05:50:20;52932.31;;;-146.10;67.38
12763;BME280;6445;52.490;13.378;2023-08-24T05:52:46;52824.25;;;-146.10;62.44
12763;BME280;6445;52.490;13.378;2023-08-24T05:55:11;52852.28;;;-146.10;56.65
12763;BME280;6445;52.490;13.378;2023-08-24T05:57:36;52832.25;;;-146.10;54.86
12763;BME280;6445;52.490;13.378;2023-08-24T06:00:03;52772.22;;;-146.10;53.09
12763;BME280;6445;52.490;13.378;2023-08-24T06:02:29;52816.25;;;-146.10;51.75
12763;BME280;6445;52.490;13.378;2023-08-24T06:04:54;52770.22;;;-146.10;55.41
12763;BME280;6445;52.490;13.378;2023-08-24T06:07:19;52770.22;;;-146.10;56.43
12763;BME280;6445;52.490;13.378;2023-08-24T06:09:46;52832.25;;;-146.10;54.54
12763;BME280;6445;52.490;13.378;2023-08-24T06:12:11;52800.25;;;-146.10;51.66
12763;BME280;6445;52.490;13.378;2023-08-24T06:14:37;52754.22;;;-146.10;52.31
12763;BME280;6445;52.490;13.378;2023-08-24T06:17:02;52772.22;;;-146.10;52.13
12763;BME280;6445;52.490;13.378;2023-08-24T06:19:28;52784.25;;;-146.10;51.24
12763;BME280;6445;52.490;13.378;2023-08-24T06:21:53;52844.25;;;-146.10;50.09
12763;BME280;6445;52.490;13.378;2023-08-24T06:24:18;52798.25;;;-146.10;50.47
12763;BME280;6445;52.490;13.378;2023-08-24T06:26:44;52910.28;;;-146.10;47.19
12763;BME280;6445;52.490;13.378;2023-08-24T06:29:09;52894.28;;;-146.10;46.53
12763;BME280;6445;52.490;13.378;2023-08-24T06:31:34;52900.28;;;-146.10;45.94
12763;BME280;6445;52.490;13.378;2023-08-24T06:33:59;53178.44;;;-146.10;40.73
12763;BME280;6445;52.490;13.378;2023-08-24T06:36:25;53262.47;;;-146.10;39.66
12763;BME280;6445;52.490;13.378;2023-08-24T06:38:51;53182.44;;;-146.10;40.34
12763;BME280;6445;52.490;13.378;2023-08-24T06:41:16;53166.44;;;-146.10;40.06
12763;BME280;6445;52.490;13.378;2023-08-24T06:43:41;53214.44;;;-146.10;40.33
12763;BME280;6445;52.490;13.378;2023-08-24T06:46:06;53284.50;;;-146.10;38.76
12763;BME280;6445;52.490;13.378;2023-08-24T06:48:34;53296.50;;;-146.10;38.23
12763;BME280;6445;52.490;13.378;2023-08-24T06:50:59;53192.44;;;-146.10;40.32
12763;BME280;6445;52.490;13.378;2023-08-24T06:53:24;53248.47;;;-146.10;38.06
12763;BME280;6445;52.490;13.378;2023-08-24T06:55:54;53144.41;;;-146.10;38.64
12763;BME280;6445;52.490;13.378;2023-08-24T06:58:19;53238.47;;;-146.10;37.62
12763;BME280;6445;52.490;13.378;2023-08-24T07:00:45;53424.56;;;-146.10;36.11
12763;BME280;6445;52.490;13.378;2023-08-24T07:03:10;53470.59;;;-146.10;35.34
12763;BME280;6445;52.490;13.378;2023-08-24T07:05:35;53508.63;;;-146.10;34.28
12763;BME280;6445;52.490;13.378;2023-08-24T07:08:00;53488.63;;;-146.10;34.94
12763;BME280;6445;52.490;13.378;2023-08-24T07:10:27;53152.41;;;-146.10;36.53
12763;BME280;6445;52.490;13.378;2023-08-24T07:12:52;53158.44;;;-146.10;36.66
12763;BME280;6445;52.490;13.378;2023-08-24T07:15:18;53270.47;;;-146.10;36.22
12763;BME280;6445;52.490;13.378;2023-08-24T07:17:43;53362.53;;;-146.10;36.00
12763;BME280;6445;52.490;13.378;2023-08-24T07:20:09;53330.53;;;-146.10;35.88
12763;BME280;6445;52.490;13.378;2023-08-24T07:22:35;53628.72;;;-146.10;33.39
12763;BME280;6445;52.490;13.378;2023-08-24T07:25:01;53306.50;;;-146.10;35.35
12763;BME280;6445;52.490;13.378;2023-08-24T07:27:26;53380.56;;;-146.10;35.08
12763;BME280;6445;52.490;13.378;2023-08-24T07:29:51;53322.50;;;-146.10;34.80
12763;BME280;6445;52.490;13.378;2023-08-24T07:32:16;53546.66;;;-146.10;33.60
12763;BME280;6445;52.490;13.378;2023-08-24T07:34:41;53500.63;;;-146.10;33.78
12763;BME280;6445;52.490;13.378;2023-08-24T07:37:07;53608.69;;;-146.10;32.76
12763;BME280;6445;52.490;13.378;2023-08-24T07:39:32;53570.66;;;-146.10;32.66
12763;BME280;6445;52.490;13.378;2023-08-24T07:41:58;53824.84;;;-146.10;32.00
12763;BME280;6445;52.490;13.378;2023-08-24T07:44:23;53628.72;;;-146.10;32.81
12763;BME280;6445;52.490;13.378;2023-08-24T07:46:49;53690.75;;;-146.10;32.02
12763;BME280;6445;52.490;13.378;2023-08-24T07:49:14;53662.72;;;-146.10;32.51
12763;BME280;6445;52.490;13.378;2023-08-24T07:51:40;53802.81;;;-146.10;31.28
12763;BME280;6445;52.490;13.378;2023-08-24T07:54:05;53962.94;;;-146.10;30.56
12763;BME280;6445;52.490;13.378;2023-08-24T07:56:32;53862.88;;;-146.10;30.63
12763;BME280;6445;52.490;13.378;2023-08-24T07:58:57;53610.69;;;-146.10;32.09
12763;BME280;6445;52.490;13.378;2023-08-24T08:01:22;53720.78;;;-146.10;31.31
12763;BME280;6445;52.490;13.378;2023-08-24T08:03:48;54014.97;;;-146.10;30.27
12763;BME280;6445;52.490;13.378;2023-08-24T08:06:13;53562.66;;;-146.10;31.67
12763;BME280;6445;52.490;13.378;2023-08-24T08:08:38;53482.63;;;-146.10;31.99
12763;BME280;6445;52.490;13.378;2023-08-24T08:11:04;53406.56;;;-146.10;32.91
12763;BME280;6445;52.490;13.378;2023-08-24T08:13:29;53302.50;;;-146.10;34.07
12763;BME280;6445;52.490;13.378;2023-08-24T08:16:05;53120.41;;;-146.10;35.50
12763;BME280;6445;52.490;13.378;2023-08-24T08:18:31;53172.44;;;-146.10;35.39
12763;BME280;6445;52.490;13.378;2023-08-24T08:20:57;53258.47;;;-146.10;35.20
12763;BME280;6445;52.490;13.378;2023-08-24T08:23:22;53226.47;;;-146.10;35.04
12763;BME280;6445;52.490;13.378;2023-08-24T08:25:47;53190.44;;;-146.10;35.27
12763;BME280;6445;52.490;13.378;2023-08-24T08:28:13;53186.44;;;-146.10;35.22
12763;BME280;6445;52.490;13.378;2023-08-24T08:30:38;53106.41;;;-146.10;36.06
12763;BME280;6445;52.490;13.378;2023-08-24T08:33:03;53134.41;;;-146.10;36.42
12763;BME280;6445;52.490;13.378;2023-08-24T08:35:28;52952.31;;;-146.10;38.03
12763;BME280;6445;52.490;13.378;2023-08-24T08:37:54;52848.28;;;-146.10;40.16
12763;BME280;6445;52.490;13.378;2023-08-24T08:40:20;52768.22;;;-146.10;41.79
12763;BME280;6445;52.490;13.378;2023-08-24T08:42:45;52718.22;;;-146.10;43.19
12763;BME280;6445;52.490;13.378;2023-08-24T08:45:11;52696.19;;;-146.10;45.27
12763;BME280;6445;52.490;13.378;2023-08-24T08:47:37;52674.19;;;-146.10;45.32
12763;BME280;6445;52.490;13.378;2023-08-24T08:50:03;52634.19;;;-146.10;46.89
12763;BME280;6445;52.490;13.378;2023-08-24T08:52:30;52678.19;;;-146.10;47.44
12763;BME280;6445;52.490;13.378;2023-08-24T08:54:56;52636.19;;;-146.10;48.19
12763;BME280;6445;52.490;13.378;2023-08-24T08:57:22;52626.16;;;-146.10;49.33
12763;BME280;6445;52.490;13.378;2023-08-24T08:59:48;52618.16;;;-146.10;50.06
12763;BME280;6445;52.490;13.378;2023-08-24T09:02:19;52648.19;;;-146.10;50.95
12763;BME280;6445;52.490;13.378;2023-08-24T09:04:45;52642.19;;;-146.10;52.12
12763;BME280;6445;52.490;13.378;2023-08-24T09:07:13;52648.19;;;-146.10;50.96
12763;BME280;6445;52.490;13.378;2023-08-24T09:09:39;52660.19;;;-146.10;51.79
12763;BME280;6445;52.490;13.378;2023-08-24T09:12:05;52692.19;;;-146.10;50.80
12763;BME280;6445;52.490;13.378;2023-08-24T09:14:30;52770.22;;;-146.10;49.06
12763;BME280;6445;52.490;13.378;2023-08-24T09:16:56;52904.28;;;-146.10;44.94
12763;BME280;6445;52.490;13.378;2023-08-24T09:19:28;52872.28;;;-146.10;43.34
12763;BME280;6445;52.490;13.378;2023-08-24T09:21:56;52826.25;;;-146.10;44.18
12763;BME280;6445;52.490;13.378;2023-08-24T09:24:32;52760.22;;;-146.10;44.71
12763;BME280;6445;52.490;13.378;2023-08-24T09:26:58;52784.25;;;-146.10;45.39
12763;BME280;6445;52.490;13.378;2023-08-24T09:29:24;52718.22;;;-146.10;47.53
12763;BME280;6445;52.490;13.378;2023-08-24T09:31:52;52712.22;;;-146.10;48.33
12763;BME280;6445;52.490;13.378;2023-08-24T09:34:24;52786.25;;;-146.10;46.04
12763;BME280;6445;52.490;13.378;2023-08-24T09:36:51;52880.28;;;-146.10;43.00
12763;BME280;6445;52.490;13.378;2023-08-24T09:39:17;53032.34;;;-146.10;40.38
12763;BME280;6445;52.490;13.378;2023-08-24T09:41:50;53224.47;;;-146.10;37.19
12763;BME280;6445;52.490;13.378;2023-08-24T09:44:17;53114.41;;;-146.10;38.00
12763;BME280;6445;52.490;13.378;2023-08-24T09:46:42;53220.47;;;-146.10;36.19
12763;BME280;6445;52.490;13.378;2023-08-24T09:49:09;53436.59;;;-146.10;34.53
12763;BME280;6445;52.490;13.378;2023-08-24T09:51:35;53488.63;;;-146.10;34.27
12763;BME280;6445;52.490;13.378;2023-08-24T09:54:05;53514.63;;;-146.10;33.24
12763;BME280;6445;52.490;13.378;2023-08-24T09:56:35;53424.56;;;-146.10;33.84
12763;BME280;6445;52.490;13.378;2023-08-24T09:59:15;53316.50;;;-146.10;35.01
12763;BME280;6445;52.490;13.378;2023-08-24T10:01:45;53226.47;;;-146.10;35.15
12763;BME280;6445;52.490;13.378;2023-08-24T10:04:12;53092.38;;;-146.10;35.95
12763;BME280;6445;52.490;13.378;2023-08-24T10:06:39;53098.38;;;-146.10;35.47
12763;BME280;6445;52.490;13.378;2023-08-24T10:09:07;53096.38;;;-146.10;36.52
12763;BME280;6445;52.490;13.378;2023-08-24T10:11:36;53004.34;;;-146.10;37.02
12763;BME280;6445;52.490;13.378;2023-08-24T10:14:12;53020.34;;;-146.10;37.22
12763;BME280;6445;52.490;13.378;2023-08-24T10:16:41;53050.38;;;-146.10;37.17
12763;BME280;6445;52.490;13.378;2023-08-24T10:19:08;52994.34;;;-146.10;36.91
12763;BME280;6445;52.490;13.378;2023-08-24T10:21:33;52936.31;;;-146.10;38.31
12763;BME280;6445;52.490;13.378;2023-08-24T10:24:01;53006.34;;;-146.10;37.41
12763;BME280;6445;52.490;13.378;2023-08-24T10:26:27;52894.28;;;-146.10;38.49
12763;BME280;6445;52.490;13.378;2023-08-24T10:28:52;52938.31;;;-146.10;38.84
12763;BME280;6445;52.490;13.378;2023-08-24T10:31:18;52838.25;;;-146.10;39.54
12763;BME280;6445;52.490;13.378;2023-08-24T10:33:45;52908.28;;;-146.10;39.78
12763;BME280;6445;52.490;13.378;2023-08-24T10:36:12;52880.28;;;-146.10;39.23
12763;BME280;6445;52.490;13.378;2023-08-24T10:38:41;52892.28;;;-146.10;39.67
12763;BME280;6445;52.490;13.378;2023-08-24T10:41:10;52914.31;;;-146.10;39.36
12763;BME280;6445;52.490;13.378;2023-08-24T10:43:40;52976.31;;;-146.10;39.00
12763;BME280;6445;52.490;13.378;2023-08-24T10:46:13;52964.31;;;-146.10;39.18
12763;BME280;6445;52.490;13.378;2023-08-24T10:53:55;52930.31;;;-146.10;39.12
12763;BME280;6445;52.490;13.378;2023-08-24T10:56:21;52970.31;;;-146.10;39.04
12763;BME280;6445;52.490;13.378;2023-08-24T10:58:47;52998.34;;;-146.10;39.41
12763;BME280;6445;52.490;13.378;2023-08-24T11:01:32;52942.31;;;-146.10;38.83
12763;BME280;6445;52.490;13.378;2023-08-24T11:03:57;52996.34;;;-146.10;38.53
12763;BME280;6445;52.490;13.378;2023-08-24T11:06:26;53082.38;;;-146.10;37.72
12763;BME280;6445;52.490;13.378;2023-08-24T11:09:07;53070.38;;;-146.10;37.45
12763;BME280;6445;52.490;13.378;2023-08-24T11:11:55;53078.38;;;-146.10;38.16
12763;BME280;6445;52.490;13.378;2023-08-24T11:14:20;53070.38;;;-146.10;38.00
12763;BME280;6445;52.490;13.378;2023-08-24T11:16:51;53104.41;;;-146.10;37.63
12763;BME280;6445;52.490;13.378;2023-08-24T11:19:16;53116.41;;;-146.10;36.72
12763;BME280;6445;52.490;13.378;2023-08-24T11:21:43;53142.41;;;-146.10;36.48
12763;BME280;6445;52.490;13.378;2023-08-24T11:24:10;53134.41;;;-146.10;36.82
12763;BME280;6445;52.490;13.378;2023-08-24T11:26:47;53140.41;;;-146.10;37.09
12763;BME280;6445;52.490;13.378;2023-08-24T11:29:13;53082.38;;;-146.10;37.48
12763;BME280;6445;52.490;13.378;2023-08-24T11:31:39;53034.34;;;-146.10;37.69
12763;BME280;6445;52.490;13.378;2023-08-24T11:34:05;52904.28;;;-146.10;38.72
12763;BME280;6445;52.490;13.378;2023-08-24T11:36:41;52924.31;;;-146.10;39.21
12763;BME280;6445;52.490;13.378;2023-08-24T11:39:06;52990.34;;;-146.10;39.20
12763;BME280;6445;52.490;13.378;2023-08-24T11:41:32;53002.34;;;-146.10;38.86
12763;BME280;6445;52.490;13.378;2023-08-24T11:44:00;52968.31;;;-146.10;38.65
12763;BME280;6445;52.490;13.378;2023-08-24T11:46:28;52942.31;;;-146.10;39.76
12763;BME280;6445;52.490;13.378;2023-08-24T11:48:54;53066.38;;;-146.10;38.33
12763;BME280;6445;52.490;13.378;2023-08-24T11:51:19;53050.38;;;-146.10;37.93
12763;BME280;6445;52.490;13.378;2023-08-24T11:53:46;53074.38;;;-146.10;37.67
12763;BME280;6445;52.490;13.378;2023-08-24T11:56:12;53046.38;;;-146.10;37.97
12763;BME280;6445;52.490;13.378;2023-08-24T11:58:42;53058.38;;;-146.10;37.99
12763;BME280;6445;52.490;13.378;2023-08-24T12:01:08;53104.41;;;-146.10;37.52
12763;BME280;6445;52.490;13.378;2023-08-24T12:03:34;52996.34;;;-146.10;37.78
12763;BME280;6445;52.490;13.378;2023-08-24T12:06:10;53008.34;;;-146.10;38.57
12763;BME280;6445;52.490;13.378;2023-08-24T12:08:46;53024.34;;;-146.10;38.04
12763;BME280;6445;52.490;13.378;2023-08-24T12:11:19;53008.34;;;-146.10;37.89
12763;BME280;6445;52.490;13.378;2023-08-24T12:13:47;52972.31;;;-146.10;39.10
12763;BME280;6445;52.490;13.378;2023-08-24T12:16:13;52924.31;;;-146.10;39.18
12763;BME280;6445;52.490;13.378;2023-08-24T12:18:55;52934.31;;;-146.10;39.07
12763;BME280;6445;52.490;13.378;2023-08-24T12:21:22;52958.31;;;-146.10;38.34
12763;BME280;6445;52.490;13.378;2023-08-24T12:24:14;52964.31;;;-146.10;39.69
12763;BME280;6445;52.490;13.378;2023-08-24T12:26:40;52960.31;;;-146.10;39.85
12763;BME280;6445;52.490;13.378;2023-08-24T12:29:08;52954.31;;;-146.10;39.77
12763;BME280;6445;52.490;13.378;2023-08-24T12:31:34;52976.31;;;-146.10;39.50
12763;BME280;6445;52.490;13.378;2023-08-24T12:34:00;52936.31;;;-146.10;40.16
12763;BME280;6445;52.490;13.378;2023-08-24T12:36:26;52904.28;;;-146.10;39.59
12763;BME280;6445;52.490;13.378;2023-08-24T12:38:52;52992.34;;;-146.10;39.81